Time;durP1;ratioP1;P1;durP2;ratioP2;P2;SDS_P1;SDS_P2;PMS_P1;PMS_P2;Temp;Humidity;BMP_temperature;BMP_pressure;BME280_temperature;BME280_humidity;BME280_pressure;Samples;Min_cycle;Max_cycle;Signal;HPM_P1;HPM_P2
2023/05/08 00:02:05;;;;;;;4.07;3.67;;;21.40;58.00;;;;;;5033069;28;20223;-80
2023/05/08 00:04:32;;;;;;;5.50;3.67;;;21.40;58.00;;;;;;5033031;28;20196;-80
2023/05/08 00:06:59;;;;;;;4.03;3.58;;;21.40;58.00;;;;;;5032851;28;20192;-80
2023/05/08 00:09:26;;;;;;;5.63;3.38;;;21.40;58.00;;;;;;5032828;28;20645;-80
2023/05/08 00:11:53;;;;;;;5.72;3.47;;;21.40;58.00;;;;;;5033302;28;20691;-80
2023/05/08 00:14:20;;;;;;;4.18;3.45;;;21.30;58.00;;;;;;5037978;28;20654;-80
2023/05/08 00:16:50;;;;;;;3.95;2.83;;;21.40;58.00;;;;;;5036174;28;20258;-80
2023/05/08 00:19:17;;;;;;;5.32;3.38;;;21.40;58.00;;;;;;5037218;28;20196;-80
2023/05/08 00:21:44;;;;;;;5.15;3.60;;;21.30;58.00;;;;;;5036580;28;20223;-80
2023/05/08 00:24:11;;;;;;;5.22;3.70;;;21.30;58.00;;;;;;5036217;28;20196;-80
2023/05/08 00:26:40;;;;;;;6.18;3.15;;;21.30;58.00;;;;;;5036111;28;20223;-80
2023/05/08 00:29:07;;;;;;;5.90;3.70;;;21.30;58.00;;;;;;5036296;28;20239;-80
2023/05/08 00:31:34;;;;;;;7.13;3.70;;;21.30;58.00;;;;;;5036202;28;20219;-80
2023/05/08 00:34:03;;;;;;;5.00;3.38;;;21.30;58.10;;;;;;5036435;28;20202;-80
2023/05/08 00:36:31;;;;;;;6.03;3.50;;;21.30;58.10;;;;;;5036724;28;20207;-80
2023/05/08 00:38:57;;;;;;;4.07;3.58;;;21.30;58.10;;;;;;5036321;28;20196;-80
2023/05/08 00:41:25;;;;;;;4.07;3.67;;;21.30;58.10;;;;;;5036162;28;20597;-80
2023/05/08 00:43:52;;;;;;;5.60;3.38;;;21.20;57.90;;;;;;5036050;28;20200;-80
2023/05/08 00:46:20;;;;;;;6.00;3.70;;;21.30;58.00;;;;;;5036268;28;20192;-80
2023/05/08 00:48:47;;;;;;;4.22;3.47;;;21.30;58.10;;;;;;5036628;28;20242;-80
2023/05/08 00:51:17;;;;;;;4.60;3.65;;;21.30;58.20;;;;;;5037069;28;20283;-80
2023/05/08 00:53:45;;;;;;;4.63;3.50;;;21.30;58.10;;;;;;5036332;28;20198;-81
2023/05/08 00:56:13;;;;;;;4.38;3.83;;;21.30;58.10;;;;;;5038673;28;20203;-80
2023/05/08 00:58:40;;;;;;;4.05;3.72;;;21.20;58.00;;;;;;5037962;28;20232;-80
2023/05/08 01:01:08;;;;;;;3.60;3.20;;;21.20;58.00;;;;;;5037733;28;20212;-80
2023/05/08 01:03:36;;;;;;;5.03;4.30;;;21.20;58.00;;;;;;5037220;28;20211;-80
2023/05/08 01:06:05;;;;;;;3.80;3.50;;;21.20;58.00;;;;;;5038420;28;20238;-80
2023/05/08 01:08:36;;;;;;;4.80;4.18;;;21.20;58.00;;;;;;5038388;28;20653;-80
2023/05/08 01:11:09;;;;;;;4.13;3.72;;;21.20;58.00;;;;;;5043283;28;20196;-80
2023/05/08 01:13:47;;;;;;;4.97;3.83;;;21.20;58.00;;;;;;5056414;28;20188;-80
2023/05/08 01:16:16;;;;;;;3.90;3.60;;;21.20;58.00;;;;;;5036788;28;20235;-80
2023/05/08 01:18:48;;;;;;;4.72;3.50;;;21.20;58.00;;;;;;5036419;28;20196;-80
2023/05/08 01:21:18;;;;;;;7.03;3.88;;;21.20;58.00;;;;;;5018984;28;20216;-80
2023/05/08 01:24:31;;;;;;;4.15;3.75;;;21.20;58.00;;;;;;5035753;28;20188;-80
2023/05/08 01:27:26;;;;;;;5.97;4.25;;;21.20;58.00;;;;;;5035675;28;20207;-80
2023/05/08 01:30:32;;;;;;;3.85;3.53;;;21.20;58.00;;;;;;5036473;28;20208;-80
2023/05/08 01:33:02;;;;;;;4.28;3.63;;;21.20;58.00;;;;;;5030990;28;20222;-80
2023/05/08 01:35:32;;;;;;;4.20;3.80;;;21.20;58.00;;;;;;5035766;28;20197;-80
2023/05/08 01:38:03;;;;;;;5.13;3.63;;;21.10;57.90;;;;;;5035856;28;20291;-80
2023/05/08 01:40:34;;;;;;;4.20;3.63;;;21.10;57.90;;;;;;5035936;28;20238;-80
2023/05/08 01:43:08;;;;;;;4.55;3.80;;;21.20;58.00;;;;;;5035765;28;20222;-79
2023/05/08 01:45:38;;;;;;;4.85;4.35;;;21.20;58.00;;;;;;5035069;28;20282;-79
2023/05/08 01:48:09;;;;;;;4.28;3.90;;;21.10;57.90;;;;;;5035410;28;20627;-79
2023/05/08 01:50:38;;;;;;;3.95;3.55;;;21.20;58.00;;;;;;5018510;28;20219;-79
2023/05/08 01:53:09;;;;;;;4.35;3.85;;;21.20;58.00;;;;;;5034895;28;20231;-79
2023/05/08 01:55:37;;;;;;;3.92;3.55;;;21.20;58.00;;;;;;5034847;28;20211;-79
2023/05/08 01:58:06;;;;;;;3.63;3.28;;;21.10;57.80;;;;;;5035198;28;20636;-79
2023/05/08 02:00:33;;;;;;;3.67;3.35;;;21.10;57.90;;;;;;5034582;28;20734;-79
2023/05/08 02:03:00;;;;;;;4.63;3.70;;;21.10;57.80;;;;;;5034986;28;20220;-79
2023/05/08 02:05:29;;;;;;;4.13;3.60;;;21.10;57.80;;;;;;5035378;28;20196;-79
2023/05/08 02:07:56;;;;;;;5.35;3.80;;;21.10;57.80;;;;;;5017864;28;20200;-79
2023/05/08 02:10:24;;;;;;;3.63;3.33;;;21.10;57.80;;;;;;5035979;28;20250;-79
2023/05/08 02:12:52;;;;;;;5.18;3.85;;;21.10;58.40;;;;;;5034736;28;20223;-79
2023/05/08 02:15:19;;;;;;;4.00;3.50;;;21.10;57.80;;;;;;5034669;28;20677;-79
2023/05/08 02:17:47;;;;;;;4.15;3.75;;;21.10;57.80;;;;;;5034939;28;20188;-79
2023/05/08 02:20:14;;;;;;;4.10;3.63;;;21.10;57.80;;;;;;5033807;28;20282;-79
2023/05/08 02:22:43;;;;;;;5.57;3.75;;;21.10;57.80;;;;;;5033752;28;20216;-79
2023/05/08 02:25:13;;;;;;;3.92;3.53;;;21.10;57.80;;;;;;5033838;28;20631;-79
2023/05/08 02:27:42;;;;;;;3.78;3.40;;;21.10;57.80;;;;;;5017433;28;20272;-79
2023/05/08 02:30:10;;;;;;;5.22;4.30;;;21.10;57.80;;;;;;5017149;28;20216;-79
2023/05/08 02:32:39;;;;;;;5.40;4.57;;;21.00;57.70;;;;;;5033652;28;20239;-79
2023/05/08 02:35:07;;;;;;;4.20;3.80;;;21.10;57.80;;;;;;5033084;28;20586;-79
2023/05/08 02:37:35;;;;;;;4.30;3.90;;;21.10;57.80;;;;;;5033455;28;20204;-79
2023/05/08 02:40:03;;;;;;;4.65;4.20;;;21.00;57.80;;;;;;5034512;28;20192;-79
2023/05/08 02:42:30;;;;;;;4.90;4.40;;;21.10;57.80;;;;;;5033346;28;20238;-79
2023/05/08 02:44:59;;;;;;;5.00;4.13;;;21.00;57.80;;;;;;5017213;28;20200;-79
2023/05/08 02:47:27;;;;;;;4.38;4.07;;;21.00;57.80;;;;;;5032072;22;20238;-79
2023/05/08 02:49:56;;;;;;;4.68;3.90;;;21.00;57.80;;;;;;5034950;28;20208;-79
2023/05/08 02:52:27;;;;;;;5.38;4.00;;;21.00;57.80;;;;;;5033577;28;20220;-79
2023/05/08 02:54:57;;;;;;;4.10;3.55;;;21.00;57.80;;;;;;5033665;28;20279;-79
2023/05/08 02:57:31;;;;;;;4.03;3.70;;;21.00;58.40;;;;;;5033677;28;20192;-79
2023/05/08 03:00:00;;;;;;;5.13;4.13;;;21.00;57.80;;;;;;5033775;28;20196;-79
2023/05/08 03:02:33;;;;;;;6.13;3.95;;;21.00;57.80;;;;;;5033685;28;20216;-79
2023/05/08 03:05:04;;;;;;;4.20;3.80;;;21.00;57.80;;;;;;5040804;28;20216;-79
2023/05/08 03:07:31;;;;;;;4.60;4.18;;;21.00;57.80;;;;;;5043690;28;20215;-79
2023/05/08 03:10:00;;;;;;;3.75;3.35;;;21.00;57.90;;;;;;5024457;28;20315;-79
2023/05/08 03:12:29;;;;;;;4.38;3.30;;;21.00;57.80;;;;;;5037822;28;20216;-80
2023/05/08 03:15:00;;;;;;;4.65;3.00;;;21.10;58.00;;;;;;5039793;28;20278;-79
2023/05/08 03:17:27;;;;;;;3.47;3.13;;;21.00;57.80;;;;;;5034341;28;20184;-80
2023/05/08 03:19:56;;;;;;;3.13;2.92;;;21.10;57.70;;;;;;5017168;28;20200;-80
2023/05/08 03:22:23;;;;;;;3.97;3.38;;;21.10;57.60;;;;;;5033358;28;20633;-79
2023/05/08 03:24:50;;;;;;;3.80;3.10;;;21.10;57.60;;;;;;5033517;28;20215;-79
2023/05/08 03:27:19;;;;;;;3.35;3.05;;;21.20;57.60;;;;;;5033422;28;20196;-79
2023/05/08 03:29:49;;;;;;;3.30;3.00;;;21.20;57.50;;;;;;5033576;28;20216;-78
2023/05/08 03:32:17;;;;;;;3.25;2.95;;;21.20;57.40;;;;;;5033073;28;20310;-78
2023/05/08 03:35:06;;;;;;;3.28;2.90;;;21.20;57.30;;;;;;5034510;28;20188;-78
2023/05/08 03:37:34;;;;;;;4.20;2.90;;;21.30;57.30;;;;;;5033174;28;20192;-78
2023/05/08 03:40:02;;;;;;;3.25;2.95;;;21.30;57.10;;;;;;5033106;28;20569;-78
2023/05/08 03:42:30;;;;;;;3.20;2.90;;;21.30;57.10;;;;;;5042320;28;20203;-78
2023/05/08 03:45:00;;;;;;;3.22;2.78;;;21.30;57.00;;;;;;5057388;28;20251;-78
2023/05/08 03:47:27;;;;;;;3.35;3.08;;;21.40;57.00;;;;;;5058256;28;20204;-78
2023/05/08 03:49:54;;;;;;;3.83;2.88;;;21.40;57.00;;;;;;5061365;28;20230;-78
2023/05/08 03:52:21;;;;;;;5.55;3.45;;;21.40;56.90;;;;;;5061200;28;20215;-78
2023/05/08 03:54:48;;;;;;;3.33;3.03;;;21.40;56.90;;;;;;5058611;28;20199;-78
2023/05/08 03:57:16;;;;;;;4.50;2.95;;;21.40;56.90;;;;;;5037360;28;20195;-78
2023/05/08 03:59:46;;;;;;;3.38;3.08;;;21.40;56.80;;;;;;5020388;28;20220;-78
2023/05/08 04:02:20;;;;;;;4.45;3.50;;;21.40;56.80;;;;;;5038477;28;20220;-81
2023/05/08 04:04:50;;;;;;;3.40;3.10;;;21.40;56.80;;;;;;5024393;28;20196;-81
2023/05/08 04:07:21;;;;;;;3.25;2.95;;;21.40;56.80;;;;;;5038994;28;20206;-81
2023/05/08 04:10:03;;;;;;;3.95;3.30;;;21.40;56.80;;;;;;5039978;28;20216;-80
2023/05/08 04:12:35;;;;;;;3.78;3.47;;;21.40;56.80;;;;;;5037729;28;20212;-81
2023/05/08 04:15:05;;;;;;;3.00;2.72;;;21.40;56.70;;;;;;5037548;28;20188;-81
2023/05/08 04:17:39;;;;;;;4.00;3.60;;;21.40;56.70;;;;;;5038331;28;20204;-81
2023/05/08 04:20:11;;;;;;;3.30;2.90;;;21.40;56.70;;;;;;5037223;28;20195;-81
2023/05/08 04:22:39;;;;;;;3.03;2.67;;;21.40;56.70;;;;;;5037426;28;20219;-81
2023/05/08 04:25:07;;;;;;;3.47;2.67;;;21.50;56.70;;;;;;5036923;28;20203;-81
2023/05/08 04:27:35;;;;;;;2.88;2.67;;;21.40;56.70;;;;;;5036922;28;20218;-79
2023/05/08 04:30:02;;;;;;;3.30;3.00;;;21.50;56.80;;;;;;5036505;28;20303;-81
2023/05/08 04:32:32;;;;;;;4.30;3.13;;;21.40;56.60;;;;;;5037590;28;20216;-80
2023/05/08 04:35:00;;;;;;;3.53;3.17;;;21.40;56.60;;;;;;5035644;28;20291;-78
2023/05/08 04:37:30;;;;;;;3.45;3.15;;;21.50;56.70;;;;;;5035681;28;20246;-78
2023/05/08 04:39:58;;;;;;;3.22;2.92;;;21.40;56.60;;;;;;5020081;28;20190;-78
2023/05/08 04:42:26;;;;;;;3.67;3.35;;;21.50;56.70;;;;;;5035588;28;20266;-78
2023/05/08 04:44:56;;;;;;;3.85;3.55;;;21.50;56.70;;;;;;5035234;28;20220;-78
2023/05/08 04:47:23;;;;;;;3.35;3.05;;;21.40;56.60;;;;;;5035632;28;20541;-78
2023/05/08 04:49:51;;;;;;;3.15;2.95;;;21.40;56.70;;;;;;5035526;28;20204;-78
2023/05/08 04:52:20;;;;;;;3.72;3.38;;;21.40;56.60;;;;;;5035709;28;20238;-78
2023/05/08 04:54:47;;;;;;;3.67;3.38;;;21.40;56.60;;;;;;5035053;28;20196;-78
2023/05/08 04:57:14;;;;;;;3.03;2.65;;;21.50;56.70;;;;;;5034809;28;20215;-78
2023/05/08 04:59:41;;;;;;;5.45;3.38;;;21.40;56.60;;;;;;5035930;28;20662;-80
2023/05/08 05:02:08;;;;;;;4.53;3.90;;;21.40;56.60;;;;;;5035943;28;20220;-80
2023/05/08 05:04:36;;;;;;;3.33;3.03;;;21.40;56.60;;;;;;5037131;28;20209;-80
2023/05/08 05:07:04;;;;;;;3.85;3.50;;;21.40;56.70;;;;;;5035888;28;20612;-80
2023/05/08 05:09:35;;;;;;;3.22;2.85;;;21.40;56.60;;;;;;5021168;28;20192;-80
2023/05/08 05:12:04;;;;;;;3.53;3.22;;;21.40;57.20;;;;;;5034930;28;20639;-80
2023/05/08 05:14:31;;;;;;;3.80;3.50;;;21.40;56.60;;;;;;5035972;28;20246;-80
2023/05/08 05:16:59;;;;;;;3.67;3.38;;;21.50;56.70;;;;;;5019647;28;20283;-81
2023/05/08 05:19:26;;;;;;;3.90;3.50;;;21.40;56.70;;;;;;5036566;28;20199;-80
2023/05/08 05:21:53;;;;;;;3.38;3.08;;;21.40;56.60;;;;;;5036080;28;20238;-80
2023/05/08 05:24:21;;;;;;;3.45;3.17;;;21.40;56.70;;;;;;5035599;28;20197;-80
2023/05/08 05:26:49;;;;;;;3.35;3.05;;;21.40;56.70;;;;;;5037686;28;20249;-80
2023/05/08 05:29:17;;;;;;;5.10;3.88;;;21.40;56.70;;;;;;5035715;28;20192;-81
2023/05/08 05:31:44;;;;;;;3.70;3.40;;;21.40;56.90;;;;;;5034973;28;20281;-81
2023/05/08 05:34:12;;;;;;;3.78;3.38;;;21.40;56.80;;;;;;5036851;28;20200;-81
2023/05/08 05:36:44;;;;;;;3.72;3.35;;;21.40;56.90;;;;;;5044067;28;20246;-81
2023/05/08 05:39:11;;;;;;;3.78;3.22;;;21.30;56.90;;;;;;5043930;28;20200;-80
2023/05/08 05:41:42;;;;;;;3.85;3.55;;;21.30;56.90;;;;;;5042275;28;20644;-80
2023/05/08 05:44:12;;;;;;;3.40;3.10;;;21.30;56.90;;;;;;5040256;28;20623;-80
2023/05/08 05:46:40;;;;;;;4.15;3.75;;;21.40;57.00;;;;;;5041093;28;20606;-80
2023/05/08 05:49:08;;;;;;;4.15;3.75;;;21.30;57.00;;;;;;5044142;28;20200;-80
2023/05/08 05:51:36;;;;;;;4.22;3.83;;;21.30;57.00;;;;;;5043526;28;20659;-81
2023/05/08 05:54:03;;;;;;;4.20;3.80;;;21.30;57.00;;;;;;5043629;28;20202;-81
2023/05/08 05:56:30;;;;;;;4.38;3.55;;;21.30;57.10;;;;;;5043167;28;20200;-81
2023/05/08 05:58:58;;;;;;;4.05;3.65;;;21.30;57.10;;;;;;5043136;28;20262;-80
2023/05/08 06:01:28;;;;;;;3.63;3.33;;;21.30;57.10;;;;;;5043802;28;20219;-80
2023/05/08 06:03:59;;;;;;;3.80;3.38;;;21.40;57.10;;;;;;5041742;28;20204;-80
2023/05/08 06:06:28;;;;;;;2.90;2.70;;;21.30;57.00;;;;;;5040506;28;20226;-81
2023/05/08 06:09:05;;;;;;;3.53;2.97;;;21.30;57.00;;;;;;5041542;28;20192;-80
2023/05/08 06:11:32;;;;;;;2.83;2.63;;;21.30;56.90;;;;;;5040611;28;20256;-80
2023/05/08 06:13:59;;;;;;;2.85;2.50;;;21.30;56.80;;;;;;5040172;28;20658;-80
2023/05/08 06:16:29;;;;;;;3.05;2.85;;;21.40;56.70;;;;;;5038270;28;20692;-80
2023/05/08 06:18:56;;;;;;;3.15;2.88;;;21.50;56.70;;;;;;5037862;28;20200;-80
2023/05/08 06:21:25;;;;;;;2.70;2.50;;;21.40;56.60;;;;;;5023381;28;20246;-80
2023/05/08 06:23:52;;;;;;;2.65;2.45;;;21.50;56.60;;;;;;5042905;28;20195;-80
2023/05/08 06:26:21;;;;;;;3.00;2.70;;;21.50;56.60;;;;;;5038880;28;20314;-80
2023/05/08 06:28:48;;;;;;;2.50;2.30;;;21.50;56.50;;;;;;5038459;28;20200;-80
2023/05/08 06:31:16;;;;;;;2.88;2.67;;;21.50;56.50;;;;;;5038466;28;20231;-80
2023/05/08 06:33:45;;;;;;;2.80;2.60;;;21.50;56.50;;;;;;5040659;28;20195;-80
2023/05/08 06:36:12;;;;;;;2.70;2.50;;;21.50;56.30;;;;;;5040025;28;20207;-80
2023/05/08 06:38:40;;;;;;;2.67;2.45;;;21.50;56.90;;;;;;5023592;28;20192;-80
2023/05/08 06:41:07;;;;;;;3.42;2.50;;;21.60;56.30;;;;;;5023765;28;20624;-80
2023/05/08 06:43:35;;;;;;;3.00;2.70;;;21.60;56.30;;;;;;5041825;28;20214;-80
2023/05/08 06:46:02;;;;;;;2.55;2.35;;;21.60;56.30;;;;;;5041279;28;20196;-80
2023/05/08 06:48:29;;;;;;;2.70;2.50;;;21.60;56.20;;;;;;5040513;28;20204;-81
2023/05/08 06:50:58;;;;;;;3.00;2.70;;;21.60;56.40;;;;;;5021061;28;20310;-80
2023/05/08 06:53:25;;;;;;;3.20;2.80;;;21.60;56.30;;;;;;5036933;28;20203;-79
2023/05/08 06:55:53;;;;;;;2.38;2.03;;;21.60;56.20;;;;;;5037664;28;20191;-80
2023/05/08 06:58:20;;;;;;;3.03;2.50;;;21.60;56.30;;;;;;5037803;28;20646;-80
2023/05/08 07:00:47;;;;;;;3.85;2.38;;;21.70;56.40;;;;;;5038626;28;20192;-80
2023/05/08 07:03:14;;;;;;;2.58;2.38;;;21.70;56.40;;;;;;5040307;28;20184;-80
2023/05/08 07:05:41;;;;;;;2.55;2.35;;;21.70;56.30;;;;;;5035472;28;20196;-80
2023/05/08 07:08:09;;;;;;;2.72;2.25;;;21.70;56.30;;;;;;5032949;28;20200;-80
2023/05/08 07:10:37;;;;;;;4.38;2.13;;;21.70;56.40;;;;;;5033299;28;20226;-80
2023/05/08 07:13:04;;;;;;;2.53;2.33;;;21.70;56.20;;;;;;5033148;28;20212;-79
2023/05/08 07:15:31;;;;;;;3.70;2.42;;;21.70;56.20;;;;;;5032510;28;20200;-78
2023/05/08 07:17:59;;;;;;;3.70;2.58;;;21.70;56.30;;;;;;5032607;28;20250;-78
2023/05/08 07:20:26;;;;;;;2.38;2.20;;;21.70;56.30;;;;;;5016298;28;20203;-78
2023/05/08 07:22:54;;;;;;;2.90;1.90;;;21.70;56.30;;;;;;5036035;28;20710;-78
2023/05/08 07:25:23;;;;;;;3.80;2.70;;;21.70;56.20;;;;;;5036984;28;20218;-78
2023/05/08 07:27:50;;;;;;;2.17;2.03;;;21.70;56.30;;;;;;5036444;28;20196;-78
2023/05/08 07:30:18;;;;;;;2.10;1.90;;;21.70;56.30;;;;;;5036354;28;20644;-78
2023/05/08 07:32:45;;;;;;;3.08;2.45;;;21.70;56.20;;;;;;5036200;28;20640;-77
2023/05/08 07:35:12;;;;;;;3.35;2.50;;;21.70;56.60;;;;;;5036385;28;20290;-77
2023/05/08 07:37:40;;;;;;;3.17;2.45;;;21.80;56.70;;;;;;5036353;28;20192;-79
2023/05/08 07:40:08;;;;;;;2.40;2.20;;;21.80;56.60;;;;;;5036444;28;20192;-81
2023/05/08 07:42:40;;;;;;;2.85;2.60;;;21.80;56.50;;;;;;5038152;28;20220;-81
2023/05/08 07:45:09;;;;;;;2.72;2.40;;;21.80;56.60;;;;;;5038425;28;20655;-80
2023/05/08 07:47:36;;;;;;;2.30;2.10;;;21.70;56.60;;;;;;5037892;28;20302;-80
2023/05/08 07:50:03;;;;;;;2.30;2.10;;;21.80;56.90;;;;;;5037204;28;20625;-80
2023/05/08 07:52:31;;;;;;;3.50;2.20;;;21.80;57.00;;;;;;5037243;28;20691;-79
2023/05/08 07:54:58;;;;;;;2.35;2.10;;;21.80;56.90;;;;;;5037120;28;20290;-80
2023/05/08 07:57:26;;;;;;;3.42;2.17;;;21.80;57.10;;;;;;5038983;28;20207;-81
2023/05/08 08:00:12;;;;;;;2.88;2.42;;;21.80;57.00;;;;;;5039079;28;20291;-81
2023/05/08 08:02:45;;;;;;;2.80;2.10;;;21.90;57.10;;;;;;5040935;28;20246;-80
2023/05/08 08:05:13;;;;;;;2.53;2.00;;;21.90;57.10;;;;;;5039301;28;20582;-80
2023/05/08 08:07:40;;;;;;;2.28;2.17;;;21.90;57.10;;;;;;5038079;28;20204;-80
2023/05/08 08:10:09;;;;;;;2.50;2.30;;;22.00;57.00;;;;;;5037556;28;20204;-82
2023/05/08 08:12:39;;;;;;;2.45;2.10;;;22.00;56.80;;;;;;5037864;28;20224;-81
2023/05/08 08:15:09;;;;;;;2.38;2.17;;;22.10;56.70;;;;;;5038616;28;20204;-80
2023/05/08 08:17:37;;;;;;;2.60;2.25;;;22.10;56.40;;;;;;5040993;28;20195;-80
2023/05/08 08:20:05;;;;;;;2.42;2.05;;;22.20;56.50;;;;;;5030025;28;20211;-80
2023/05/08 08:22:32;;;;;;;2.88;2.38;;;22.20;56.60;;;;;;5045633;28;20219;-80
2023/05/08 08:24:59;;;;;;;2.30;2.10;;;22.20;56.40;;;;;;5043792;28;20196;-80
2023/05/08 08:27:26;;;;;;;2.80;2.40;;;22.30;56.40;;;;;;5047178;28;20272;-80
2023/05/08 08:29:53;;;;;;;2.72;2.50;;;22.30;56.40;;;;;;5045514;28;20200;-80
2023/05/08 08:32:21;;;;;;;2.58;2.35;;;22.40;56.50;;;;;;5045751;28;20220;-80
2023/05/08 08:34:49;;;;;;;5.68;2.88;;;22.40;56.00;;;;;;5045994;28;20192;-80
2023/05/08 08:37:16;;;;;;;2.60;2.40;;;22.40;56.00;;;;;;5037312;28;20200;-77
2023/05/08 08:39:43;;;;;;;2.83;2.60;;;22.50;56.20;;;;;;5041298;28;20718;-79
2023/05/08 08:42:11;;;;;;;3.28;2.90;;;22.50;56.10;;;;;;5042456;28;20295;-80
2023/05/08 08:44:38;;;;;;;3.58;3.22;;;22.50;56.00;;;;;;5044868;28;20204;-79
2023/05/08 08:47:05;;;;;;;3.15;2.85;;;22.50;56.00;;;;;;5056507;22;20214;-78
2023/05/08 08:49:35;;;;;;;3.03;2.75;;;22.50;56.00;;;;;;5036128;28;20220;-79
2023/05/08 08:52:07;;;;;;;3.13;2.92;;;22.50;56.60;;;;;;5036039;28;20223;-79
2023/05/08 08:54:35;;;;;;;3.35;2.80;;;22.50;56.00;;;;;;5020175;28;20196;-79
2023/05/08 08:57:05;;;;;;;2.97;2.67;;;22.50;56.00;;;;;;5035920;28;20208;-79
2023/05/08 08:59:33;;;;;;;2.85;2.65;;;22.50;56.10;;;;;;5036212;28;20203;-80
2023/05/08 09:02:04;;;;;;;3.35;3.05;;;22.50;56.10;;;;;;5035970;28;20212;-80
2023/05/08 09:04:31;;;;;;;2.90;2.70;;;22.50;56.10;;;;;;5036405;28;20207;-80
2023/05/08 09:07:00;;;;;;;4.38;3.10;;;22.50;55.80;;;;;;5036119;28;20294;-80
2023/05/08 09:09:28;;;;;;;3.40;3.10;;;22.50;56.00;;;;;;5037003;28;20184;-80
2023/05/08 09:11:55;;;;;;;3.13;2.92;;;22.50;56.20;;;;;;5035347;28;20320;-80
2023/05/08 09:14:24;;;;;;;3.78;3.42;;;22.50;55.90;;;;;;5036400;28;20200;-80
2023/05/08 09:16:51;;;;;;;4.57;4.15;;;22.60;56.20;;;;;;5003314;28;20200;-80
2023/05/08 09:19:19;;;;;;;5.00;3.63;;;22.50;56.20;;;;;;5035453;28;20198;-82
2023/05/08 09:21:46;;;;;;;5.45;3.42;;;22.60;55.90;;;;;;5035397;28;20294;-80
2023/05/08 09:24:14;;;;;;;4.43;3.40;;;22.50;56.00;;;;;;5036213;28;20208;-82
2023/05/08 09:26:41;;;;;;;4.70;3.92;;;22.60;56.20;;;;;;5038793;28;20200;-83
2023/05/08 09:29:12;;;;;;;3.70;3.13;;;22.60;56.30;;;;;;5037731;28;20212;-83
2023/05/08 09:31:41;;;;;;;3.85;3.50;;;22.60;56.20;;;;;;5036362;28;20262;-83
2023/05/08 09:34:08;;;;;;;4.10;3.63;;;22.50;56.20;;;;;;5035353;28;20224;-82
2023/05/08 09:36:35;;;;;;;4.75;3.90;;;22.50;56.10;;;;;;5037820;28;20188;-82
2023/05/08 09:39:03;;;;;;;3.72;3.42;;;22.50;56.20;;;;;;5035937;28;20200;-82
2023/05/08 09:41:31;;;;;;;4.05;3.75;;;22.50;56.20;;;;;;5035945;28;20223;-82
2023/05/08 09:44:02;;;;;;;3.78;3.47;;;22.60;56.30;;;;;;5037330;28;20207;-84
2023/05/08 09:46:30;;;;;;;6.57;4.00;;;22.60;56.30;;;;;;5034485;28;20204;-81
2023/05/08 09:49:00;;;;;;;3.70;3.38;;;22.60;56.40;;;;;;5035093;28;20246;-84
2023/05/08 09:51:32;;;;;;;4.20;3.17;;;22.60;56.50;;;;;;5034964;28;20226;-82
2023/05/08 09:54:02;;;;;;;3.85;3.47;;;22.60;56.40;;;;;;5034839;28;20215;-81
2023/05/08 09:56:35;;;;;;;4.07;3.67;;;22.60;56.40;;;;;;5035003;28;20246;-82
2023/05/08 09:59:03;;;;;;;3.55;3.25;;;22.60;56.40;;;;;;5019040;28;20196;-85
2023/05/08 10:01:31;;;;;;;4.43;4.07;;;22.60;56.30;;;;;;5018512;28;20235;-84
2023/05/08 10:03:58;;;;;;;4.85;3.58;;;22.60;56.50;;;;;;5036422;28;20207;-86
2023/05/08 10:06:27;;;;;;;3.60;3.22;;;22.60;56.50;;;;;;5035087;28;20249;-83
2023/05/08 10:09:09;;;;;;;4.25;3.88;;;22.60;56.30;;;;;;5034749;28;20188;-84
2023/05/08 10:11:38;;;;;;;3.70;3.13;;;22.60;56.30;;;;;;5018804;28;20230;-83
2023/05/08 10:14:05;;;;;;;3.42;3.20;;;22.70;56.40;;;;;;5036510;28;20565;-85
2023/05/08 10:16:36;;;;;;;3.42;3.13;;;22.60;56.30;;;;;;5037994;28;20643;-85
2023/05/08 10:19:04;;;;;;;4.00;3.60;;;22.70;56.20;;;;;;5037741;28;20184;-80
2023/05/08 10:21:31;;;;;;;3.80;3.50;;;22.70;56.10;;;;;;5035586;28;20255;-80
2023/05/08 10:23:59;;;;;;;3.50;3.20;;;22.70;55.90;;;;;;5035717;28;20231;-83
2023/05/08 10:26:29;;;;;;;5.25;3.30;;;22.70;55.80;;;;;;5035926;28;20283;-83
2023/05/08 10:29:06;;;;;;;4.15;3.75;;;22.80;55.90;;;;;;5035231;28;20220;-84
2023/05/08 10:31:34;;;;;;;3.58;3.28;;;22.80;55.80;;;;;;5034223;28;20283;-80
2023/05/08 10:34:02;;;;;;;3.63;3.30;;;22.90;55.70;;;;;;5034458;28;20207;-83
2023/05/08 10:36:31;;;;;;;3.47;3.17;;;22.90;55.50;;;;;;5017670;28;20729;-83
2023/05/08 10:38:58;;;;;;;3.67;3.38;;;22.90;55.50;;;;;;5018469;28;20200;-82
2023/05/08 10:41:25;;;;;;;3.85;3.55;;;23.00;55.40;;;;;;5034744;28;20223;-84
2023/05/08 10:43:52;;;;;;;3.47;3.17;;;23.00;55.30;;;;;;5034732;28;20306;-82
2023/05/08 10:46:29;;;;;;;4.05;3.50;;;23.00;55.20;;;;;;5035614;28;20512;-81
2023/05/08 10:48:59;;;;;;;3.40;3.10;;;23.10;55.10;;;;;;5035050;28;20665;-82
2023/05/08 10:51:32;;;;;;;3.03;2.80;;;23.10;55.10;;;;;;5045853;28;20223;-80
2023/05/08 10:54:04;;;;;;;3.70;3.40;;;23.10;55.00;;;;;;5041107;28;20233;-81
2023/05/08 10:56:31;;;;;;;3.38;3.08;;;23.10;55.00;;;;;;5057518;28;20164;-81
2023/05/08 10:58:59;;;;;;;2.45;2.28;;;23.10;55.00;;;;;;5047280;28;20199;-84
2023/05/08 11:01:28;;;;;;;3.65;3.00;;;23.10;54.80;;;;;;5035794;28;20647;-81
2023/05/08 11:03:55;;;;;;;3.40;3.00;;;23.10;54.70;;;;;;5034840;28;20212;-80
2023/05/08 11:06:45;;;;;;;3.05;2.85;;;23.10;54.80;;;;;;5037312;28;20192;-82
2023/05/08 11:09:21;;;;;;;4.22;3.63;;;23.20;55.00;;;;;;5034380;28;20637;-82
2023/05/08 11:12:03;;;;;;;3.10;2.88;;;23.10;55.00;;;;;;5034525;28;20219;-78
2023/05/08 11:14:30;;;;;;;3.65;2.72;;;23.20;54.80;;;;;;5034925;28;20219;-79
2023/05/08 11:17:09;;;;;;;3.15;2.85;;;23.20;54.80;;;;;;5019886;28;20202;-82
2023/05/08 11:19:36;;;;;;;3.60;3.30;;;23.20;54.80;;;;;;5034931;28;20215;-83
2023/05/08 11:22:27;;;;;;;2.85;2.65;;;23.20;54.80;;;;;;5034676;28;20247;-83
2023/05/08 11:24:56;;;;;;;3.15;2.88;;;23.20;54.80;;;;;;5018151;28;20230;-83
2023/05/08 11:27:36;;;;;;;3.28;3.05;;;23.20;54.70;;;;;;5034606;28;20219;-81
2023/05/08 11:30:23;;;;;;;3.35;3.05;;;23.20;54.70;;;;;;5037354;28;20199;-81
2023/05/08 11:33:15;;;;;;;3.50;3.20;;;23.20;54.70;;;;;;5036957;28;20274;-82
2023/05/08 11:35:50;;;;;;;3.42;3.13;;;23.20;54.60;;;;;;5033584;28;20210;-82
2023/05/08 11:38:23;;;;;;;3.40;3.10;;;23.20;54.60;;;;;;5035070;28;20227;-80
2023/05/08 11:41:00;;;;;;;3.58;3.30;;;23.30;54.70;;;;;;5034923;28;20200;-82
2023/05/08 11:43:46;;;;;;;3.40;3.10;;;23.30;55.10;;;;;;5034848;28;20180;-85
2023/05/08 11:46:15;;;;;;;3.17;2.97;;;23.30;54.30;;;;;;5039978;28;20217;-83
2023/05/08 11:48:43;;;;;;;3.40;3.05;;;23.30;54.20;;;;;;5039580;28;20214;-81
2023/05/08 11:51:12;;;;;;;4.18;3.78;;;23.40;54.20;;;;;;5035841;28;20223;-81
2023/05/08 11:53:39;;;;;;;4.35;3.70;;;23.40;54.40;;;;;;5021023;28;20216;-83
2023/05/08 11:56:08;;;;;;;5.80;3.40;;;23.40;54.00;;;;;;5036770;28;20227;-82
2023/05/08 11:58:36;;;;;;;3.65;3.35;;;23.40;54.10;;;;;;5035790;28;20197;-82
2023/05/08 12:01:03;;;;;;;3.78;3.47;;;23.40;54.00;;;;;;5017810;28;20646;-80
2023/05/08 12:03:31;;;;;;;4.38;3.97;;;23.40;54.10;;;;;;5018420;28;20196;-83
2023/05/08 12:05:59;;;;;;;3.58;3.28;;;23.40;54.10;;;;;;5034457;28;20223;-83
2023/05/08 12:08:26;;;;;;;3.75;3.45;;;23.40;54.30;;;;;;5034342;28;20200;-83
2023/05/08 12:10:55;;;;;;;4.05;3.67;;;23.40;54.10;;;;;;5037282;28;20196;-83
2023/05/08 12:13:23;;;;;;;4.13;3.78;;;23.40;54.20;;;;;;5037075;28;20247;-83
2023/05/08 12:15:55;;;;;;;4.00;3.70;;;23.50;54.20;;;;;;5020859;28;20262;-83
2023/05/08 12:18:22;;;;;;;3.83;3.45;;;23.50;53.90;;;;;;5022137;28;20189;-83
2023/05/08 12:20:53;;;;;;;4.10;3.75;;;23.50;53.70;;;;;;5037553;28;20192;-83
2023/05/08 12:23:23;;;;;;;4.07;3.75;;;23.50;53.60;;;;;;5036774;28;20584;-83
2023/05/08 12:25:52;;;;;;;4.00;3.63;;;23.60;53.70;;;;;;5038455;28;20215;-83
2023/05/08 12:28:19;;;;;;;3.80;3.50;;;23.60;53.50;;;;;;5038288;28;20184;-83
2023/05/08 12:30:47;;;;;;;4.00;3.67;;;23.60;53.50;;;;;;5037524;28;20200;-83
2023/05/08 12:33:14;;;;;;;4.25;3.95;;;23.60;53.30;;;;;;5038403;28;20311;-83
2023/05/08 12:35:41;;;;;;;3.53;3.22;;;23.60;53.30;;;;;;5038448;28;20204;-83
2023/05/08 12:38:09;;;;;;;4.65;4.25;;;23.60;53.30;;;;;;5038647;28;20616;-83
2023/05/08 12:40:41;;;;;;;3.22;2.97;;;23.60;53.30;;;;;;5038764;28;20204;-83
2023/05/08 12:43:09;;;;;;;4.00;3.60;;;23.70;53.20;;;;;;5038978;28;20216;-83
2023/05/08 12:45:38;;;;;;;3.58;3.30;;;23.60;53.20;;;;;;5038868;28;20196;-83
2023/05/08 12:48:06;;;;;;;3.42;3.20;;;23.60;53.10;;;;;;5039127;28;20208;-81
2023/05/08 12:50:34;;;;;;;5.05;3.65;;;23.60;53.10;;;;;;5040563;28;20207;-82
2023/05/08 12:53:03;;;;;;;3.67;3.38;;;23.60;53.10;;;;;;5040976;28;20666;-82
2023/05/08 12:55:31;;;;;;;3.47;3.17;;;23.70;53.20;;;;;;5040115;28;20613;-83
2023/05/08 12:58:03;;;;;;;3.63;3.10;;;23.60;53.20;;;;;;5036718;28;20581;-83
2023/05/08 13:00:37;;;;;;;2.80;2.60;;;23.60;53.30;;;;;;5036813;28;20207;-83